sensor_id;sensor_type;location;lat;lon;timestamp;pressure;altitude;pressure_sealevel;temperature;humidity
73941;BME280;62294;48.554;10.202;2024-02-04T00:00:00;97348.00;;;5.99;100.00
73941;BME280;62294;48.554;10.202;2024-02-04T00:02:27;97345.38;;;5.99;100.00
73941;BME280;62294;48.554;10.202;2024-02-04T00:04:54;97355.38;;;5.87;100.00
73941;BME280;62294;48.554;10.202;2024-02-04T00:07:20;97362.41;;;5.79;100.00
73941;BME280;62294;48.554;10.202;2024-02-04T00:09:48;97369.28;;;5.71;100.00
73941;BME280;62294;48.554;10.202;2024-02-04T00:12:14;97388.69;;;5.62;100.00
73941;BME280;62294;48.554;10.202;2024-02-04T00:14:41;97393.31;;;5.60;100.00
73941;BME280;62294;48.554;10.202;2024-02-04T00:17:08;97413.06;;;5.56;100.00
73941;BME280;62294;48.554;10.202;2024-02-04T00:19:34;97425.03;;;5.51;100.00
73941;BME280;62294;48.554;10.202;2024-02-04T00:22:01;97426.00;;;5.50;100.00
73941;BME280;62294;48.554;10.202;2024-02-04T00:24:28;97416.91;;;5.44;100.00
73941;BME280;62294;48.554;10.202;2024-02-04T00:26:55;97413.91;;;5.39;100.00
73941;BME280;62294;48.554;10.202;2024-02-04T00:29:21;97422.81;;;5.38;100.00
73941;BME280;62294;48.554;10.202;2024-02-04T00:31:47;97442.06;;;5.39;100.00
73941;BME280;62294;48.554;10.202;2024-02-04T00:34:14;97449.53;;;5.43;100.00
73941;BME280;62294;48.554;10.202;2024-02-04T00:36:41;97447.72;;;5.44;100.00
73941;BME280;62294;48.554;10.202;2024-02-04T00:39:08;97444.59;;;5.40;100.00
73941;BME280;62294;48.554;10.202;2024-02-04T00:41:35;97439.59;;;5.37;100.00
73941;BME280;62294;48.554;10.202;2024-02-04T00:44:01;97441.19;;;5.30;100.00
73941;BME280;62294;48.554;10.202;2024-02-04T00:46:28;97444.13;;;5.27;100.00
73941;BME280;62294;48.554;10.202;2024-02-04T00:48:54;97452.47;;;5.23;100.00
73941;BME280;62294;48.554;10.202;2024-02-04T00:51:21;97452.81;;;5.20;100.00
73941;BME280;62294;48.554;10.202;2024-02-04T00:53:48;97447.84;;;5.17;100.00
73941;BME280;62294;48.554;10.202;2024-02-04T00:56:15;97457.25;;;5.19;100.00
73941;BME280;62294;48.554;10.202;2024-02-04T00:58:41;97451.81;;;5.21;100.00
73941;BME280;62294;48.554;10.202;2024-02-04T01:01:08;97474.34;;;5.15;100.00
73941;BME280;62294;48.554;10.202;2024-02-04T01:03:35;97478.34;;;5.19;100.00
73941;BME280;62294;48.554;10.202;2024-02-04T01:06:01;97488.88;;;5.19;100.00
73941;BME280;62294;48.554;10.202;2024-02-04T01:08:28;97493.47;;;5.17;100.00
73941;BME280;62294;48.554;10.202;2024-02-04T01:10:55;97495.09;;;5.18;100.00
73941;BME280;62294;48.554;10.202;2024-02-04T01:13:21;97520.50;;;5.19;100.00
73941;BME280;62294;48.554;10.202;2024-02-04T01:15:48;97528.91;;;5.23;100.00
73941;BME280;62294;48.554;10.202;2024-02-04T01:18:14;97537.22;;;5.28;100.00
73941;BME280;62294;48.554;10.202;2024-02-04T01:20:41;97535.41;;;5.28;100.00
73941;BME280;62294;48.554;10.202;2024-02-04T01:23:08;97531.81;;;5.29;100.00
73941;BME280;62294;48.554;10.202;2024-02-04T01:25:35;97534.13;;;5.32;100.00
73941;BME280;62294;48.554;10.202;2024-02-04T01:28:05;97539.28;;;5.34;100.00
73941;BME280;62294;48.554;10.202;2024-02-04T01:30:31;97533.47;;;5.30;100.00
73941;BME280;62294;48.554;10.202;2024-02-04T01:32:58;97543.72;;;5.33;100.00
73941;BME280;62294;48.554;10.202;2024-02-04T01:35:25;97543.38;;;5.36;100.00
73941;BME280;62294;48.554;10.202;2024-02-04T01:37:51;97544.28;;;5.27;100.00
73941;BME280;62294;48.554;10.202;2024-02-04T01:40:18;97533.75;;;5.27;100.00
73941;BME280;62294;48.554;10.202;2024-02-04T01:42:44;97533.47;;;5.30;100.00
73941;BME280;62294;48.554;10.202;2024-02-04T01:45:11;97531.50;;;5.32;100.00
73941;BME280;62294;48.554;10.202;2024-02-04T01:47:38;97533.47;;;5.30;100.00
73941;BME280;62294;48.554;10.202;2024-02-04T01:50:05;97522.41;;;5.27;100.00
73941;BME280;62294;48.554;10.202;2024-02-04T01:52:33;97534.91;;;5.25;100.00
73941;BME280;62294;48.554;10.202;2024-02-04T01:55:03;97539.34;;;5.24;100.00
73941;BME280;62294;48.554;10.202;2024-02-04T01:57:32;97535.03;;;5.23;100.00
73941;BME280;62294;48.554;10.202;2024-02-04T02:00:02;97538.66;;;5.22;100.00
73941;BME280;62294;48.554;10.202;2024-02-04T02:02:30;97539.34;;;5.24;100.00
73941;BME280;62294;48.554;10.202;2024-02-04T02:04:57;97547.09;;;5.26;100.00
73941;BME280;62294;48.554;10.202;2024-02-04T02:07:26;97545.91;;;5.20;100.00
73941;BME280;62294;48.554;10.202;2024-02-04T02:09:54;97550.84;;;5.23;100.00
73941;BME280;62294;48.554;10.202;2024-02-04T02:12:25;97542.94;;;5.23;100.00
73941;BME280;62294;48.554;10.202;2024-02-04T02:15:04;97543.25;;;5.20;100.00
73941;BME280;62294;48.554;10.202;2024-02-04T02:20:30;97562.56;;;5.11;100.00
73941;BME280;62294;48.554;10.202;2024-02-04T02:23:10;97589.91;;;5.10;100.00
73941;BME280;62294;48.554;10.202;2024-02-04T02:25:39;97596.41;;;5.16;100.00
73941;BME280;62294;48.554;10.202;2024-02-04T02:28:07;97612.34;;;5.14;100.00
73941;BME280;62294;48.554;10.202;2024-02-04T02:30:34;97615.28;;;5.11;100.00
73941;BME280;62294;48.554;10.202;2024-02-04T02:33:00;97613.63;;;5.10;100.00
73941;BME280;62294;48.554;10.202;2024-02-04T02:35:27;97614.59;;;5.09;100.00
73941;BME280;62294;48.554;10.202;2024-02-04T02:38:24;97614.59;;;5.09;100.00
73941;BME280;62294;48.554;10.202;2024-02-04T02:40:58;97618.78;;;5.02;100.00
73941;BME280;62294;48.554;10.202;2024-02-04T02:43:26;97625.88;;;5.01;100.00
73941;BME280;62294;48.554;10.202;2024-02-04T02:45:54;97636.00;;;5.06;100.00
73941;BME280;62294;48.554;10.202;2024-02-04T02:48:21;97645.84;;;5.04;100.00
73941;BME280;62294;48.554;10.202;2024-02-04T02:50:48;97655.78;;;5.10;100.00
73941;BME280;62294;48.554;10.202;2024-02-04T02:53:14;97659.78;;;5.14;100.00
73941;BME280;62294;48.554;10.202;2024-02-04T02:55:42;97644.13;;;5.13;100.00
73941;BME280;62294;48.554;10.202;2024-02-04T02:58:08;97632.09;;;5.10;100.00
73941;BME280;62294;48.554;10.202;2024-02-04T03:00:35;97629.59;;;5.09;100.00
73941;BME280;62294;48.554;10.202;2024-02-04T03:03:02;97642.22;;;5.05;100.00
73941;BME280;62294;48.554;10.202;2024-02-04T03:05:29;97639.59;;;5.05;100.00
73941;BME280;62294;48.554;10.202;2024-02-04T03:07:55;97641.53;;;5.03;100.00
73941;BME280;62294;48.554;10.202;2024-02-04T03:10:22;97637.16;;;4.94;100.00
73941;BME280;62294;48.554;10.202;2024-02-04T03:12:48;97632.75;;;4.85;100.00
73941;BME280;62294;48.554;10.202;2024-02-04T03:15:15;97621.13;;;4.78;100.00
73941;BME280;62294;48.554;10.202;2024-02-04T03:17:44;97623.28;;;4.65;100.00
73941;BME280;62294;48.554;10.202;2024-02-04T03:20:11;97631.72;;;4.59;100.00
73941;BME280;62294;48.554;10.202;2024-02-04T03:22:37;97629.41;;;4.56;100.00
73941;BME280;62294;48.554;10.202;2024-02-04T03:25:04;97635.50;;;4.56;100.00
73941;BME280;62294;48.554;10.202;2024-02-04T03:27:31;97647.81;;;4.56;100.00
73941;BME280;62294;48.554;10.202;2024-02-04T03:29:58;97658.34;;;4.56;100.00
73941;BME280;62294;48.554;10.202;2024-02-04T03:32:24;97665.28;;;4.57;100.00
73941;BME280;62294;48.554;10.202;2024-02-04T03:34:51;97682.19;;;4.54;100.00
73941;BME280;62294;48.554;10.202;2024-02-04T03:37:17;97687.59;;;4.53;100.00
73941;BME280;62294;48.554;10.202;2024-02-04T03:39:44;97692.88;;;4.53;100.00
73941;BME280;62294;48.554;10.202;2024-02-04T03:42:11;97705.19;;;4.52;100.00
73941;BME280;62294;48.554;10.202;2024-02-04T03:44:37;97706.03;;;4.53;100.00
73941;BME280;62294;48.554;10.202;2024-02-04T03:47:04;97718.22;;;4.54;100.00
73941;BME280;62294;48.554;10.202;2024-02-04T03:49:30;97725.81;;;4.57;100.00
73941;BME280;62294;48.554;10.202;2024-02-04T03:51:57;97739.00;;;4.57;100.00
73941;BME280;62294;48.554;10.202;2024-02-04T03:54:24;97744.25;;;4.57;100.00
73941;BME280;62294;48.554;10.202;2024-02-04T03:56:51;97745.94;;;4.58;100.00
73941;BME280;62294;48.554;10.202;2024-02-04T03:59:17;97748.56;;;4.58;100.00
73941;BME280;62294;48.554;10.202;2024-02-04T04:01:50;97767.00;;;4.58;100.00
73941;BME280;62294;48.554;10.202;2024-02-04T04:04:20;97781.13;;;4.57;100.00
73941;BME280;62294;48.554;10.202;2024-02-04T04:06:47;97790.69;;;4.58;100.00
73941;BME280;62294;48.554;10.202;2024-02-04T04:09:15;97803.88;;;4.58;100.00
73941;BME280;62294;48.554;10.202;2024-02-04T04:11:41;97816.88;;;4.59;100.00
73941;BME280;62294;48.554;10.202;2024-02-04T04:14:08;97823.00;;;4.60;100.00
73941;BME280;62294;48.554;10.202;2024-02-04T04:16:34;97824.94;;;4.58;100.00
73941;BME280;62294;48.554;10.202;2024-02-04T04:19:01;97811.75;;;4.58;100.00
73941;BME280;62294;48.554;10.202;2024-02-04T04:21:29;97827.41;;;4.59;100.00
73941;BME280;62294;48.554;10.202;2024-02-04T04:23:55;97828.25;;;4.60;100.00
73941;BME280;62294;48.554;10.202;2024-02-04T04:26:21;97837.69;;;4.62;100.00
73941;BME280;62294;48.554;10.202;2024-02-04T04:28:48;97840.16;;;4.64;100.00
73941;BME280;62294;48.554;10.202;2024-02-04T04:31:15;97851.28;;;4.67;100.00
73941;BME280;62294;48.554;10.202;2024-02-04T04:33:41;97852.38;;;4.74;100.00
73941;BME280;62294;48.554;10.202;2024-02-04T04:36:08;97865.66;;;4.73;100.00
73941;BME280;62294;48.554;10.202;2024-02-04T04:38:35;97865.56;;;4.74;100.00
73941;BME280;62294;48.554;10.202;2024-02-04T04:41:01;97869.00;;;4.75;100.00
73941;BME280;62294;48.554;10.202;2024-02-04T04:43:28;97877.31;;;4.80;100.00
73941;BME280;62294;48.554;10.202;2024-02-04T04:45:54;97898.13;;;4.83;100.00
73941;BME280;62294;48.554;10.202;2024-02-04T04:48:21;97897.72;;;4.87;100.00
73941;BME280;62294;48.554;10.202;2024-02-04T04:50:48;97887.44;;;4.84;100.00
73941;BME280;62294;48.554;10.202;2024-02-04T04:53:14;97884.53;;;4.78;100.00
73941;BME280;62294;48.554;10.202;2024-02-04T04:55:41;97871.50;;;4.76;100.00
73941;BME280;62294;48.554;10.202;2024-02-04T04:58:08;97874.25;;;4.75;100.00
73941;BME280;62294;48.554;10.202;2024-02-04T05:00:34;97871.25;;;4.70;100.00
73941;BME280;62294;48.554;10.202;2024-02-04T05:03:01;97867.88;;;4.68;100.00
73941;BME280;62294;48.554;10.202;2024-02-04T05:05:28;97865.25;;;4.68;100.00
73941;BME280;62294;48.554;10.202;2024-02-04T05:07:54;97865.97;;;4.70;100.00
73941;BME280;62294;48.554;10.202;2024-02-04T05:10:21;97869.41;;;4.70;100.00
73941;BME280;62294;48.554;10.202;2024-02-04T05:12:48;97865.13;;;4.69;100.00
73941;BME280;62294;48.554;10.202;2024-02-04T05:15:14;97863.44;;;4.68;100.00
73941;BME280;62294;48.554;10.202;2024-02-04T05:17:41;97856.66;;;4.66;100.00
73941;BME280;62294;48.554;10.202;2024-02-04T05:20:08;97860.81;;;4.59;100.00
73941;BME280;62294;48.554;10.202;2024-02-04T05:22:35;97864.56;;;4.47;100.00
73941;BME280;62294;48.554;10.202;2024-02-04T05:25:01;97874.66;;;4.42;100.00
73941;BME280;62294;48.554;10.202;2024-02-04T05:27:29;97872.84;;;4.32;100.00
73941;BME280;62294;48.554;10.202;2024-02-04T05:29:56;97886.28;;;4.29;100.00
73941;BME280;62294;48.554;10.202;2024-02-04T05:32:22;97887.78;;;4.22;100.00
73941;BME280;62294;48.554;10.202;2024-02-04T05:34:49;97887.22;;;4.19;100.00
73941;BME280;62294;48.554;10.202;2024-02-04T05:37:15;97902.75;;;4.22;100.00
73941;BME280;62294;48.554;10.202;2024-02-04T05:39:42;97922.28;;;4.19;100.00
73941;BME280;62294;48.554;10.202;2024-02-04T05:42:09;97922.41;;;4.18;100.00
73941;BME280;62294;48.554;10.202;2024-02-04T05:44:35;97947.63;;;4.20;100.00
73941;BME280;62294;48.554;10.202;2024-02-04T05:47:02;97963.16;;;4.23;100.00
73941;BME280;62294;48.554;10.202;2024-02-04T05:49:28;97969.25;;;4.24;100.00
73941;BME280;62294;48.554;10.202;2024-02-04T05:51:55;97989.22;;;4.26;100.00
73941;BME280;62294;48.554;10.202;2024-02-04T05:54:22;98000.00;;;4.23;100.00
73941;BME280;62294;48.554;10.202;2024-02-04T05:56:49;98018.56;;;4.22;100.00
73941;BME280;62294;48.554;10.202;2024-02-04T05:59:15;98036.97;;;4.22;100.00
73941;BME280;62294;48.554;10.202;2024-02-04T06:01:43;98054.97;;;4.17;100.00
73941;BME280;62294;48.554;10.202;2024-02-04T06:04:11;98081.66;;;4.12;100.00
73941;BME280;62294;48.554;10.202;2024-02-04T06:06:38;98102.72;;;4.12;100.00
73941;BME280;62294;48.554;10.202;2024-02-04T06:09:05;98110.47;;;4.14;100.00
73941;BME280;62294;48.554;10.202;2024-02-04T06:11:31;98130.69;;;4.13;100.00
73941;BME280;62294;48.554;10.202;2024-02-04T06:13:58;98142.88;;;4.14;100.00
73941;BME280;62294;48.554;10.202;2024-02-04T06:16:24;98150.06;;;4.12;100.00
73941;BME280;62294;48.554;10.202;2024-02-04T06:18:50;98180.81;;;4.12;100.00
73941;BME280;62294;48.554;10.202;2024-02-04T06:21:22;98194.91;;;4.11;100.00
73941;BME280;62294;48.554;10.202;2024-02-04T06:23:49;98209.63;;;4.13;100.00
73941;BME280;62294;48.554;10.202;2024-02-04T06:26:16;98224.94;;;4.19;100.00
73941;BME280;62294;48.554;10.202;2024-02-04T06:28:42;98229.22;;;4.20;100.00
73941;BME280;62294;48.554;10.202;2024-02-04T06:31:14;98251.25;;;4.19;100.00
73941;BME280;62294;48.554;10.202;2024-02-04T06:33:41;98261.78;;;4.19;100.00
73941;BME280;62294;48.554;10.202;2024-02-04T06:36:10;98265.88;;;4.12;100.00
73941;BME280;62294;48.554;10.202;2024-02-04T06:38:37;98270.16;;;4.13;100.00
73941;BME280;62294;48.554;10.202;2024-02-04T06:41:04;98279.59;;;4.16;100.00
73941;BME280;62294;48.554;10.202;2024-02-04T06:43:31;98281.38;;;4.15;100.00
73941;BME280;62294;48.554;10.202;2024-02-04T06:46:02;98302.44;;;4.15;100.00
73941;BME280;62294;48.554;10.202;2024-02-04T06:48:29;98321.84;;;4.14;100.00
73941;BME280;62294;48.554;10.202;2024-02-04T06:50:55;98339.06;;;4.18;100.00
73941;BME280;62294;48.554;10.202;2024-02-04T06:53:21;98343.38;;;4.19;100.00
73941;BME280;62294;48.554;10.202;2024-02-04T06:55:48;98346.00;;;4.19;100.00
73941;BME280;62294;48.554;10.202;2024-02-04T06:58:15;98342.38;;;4.20;100.00
73941;BME280;62294;48.554;10.202;2024-02-04T07:00:41;98352.34;;;4.17;100.00
73941;BME280;62294;48.554;10.202;2024-02-04T07:03:08;98365.38;;;4.18;100.00
73941;BME280;62294;48.554;10.202;2024-02-04T07:05:35;98370.63;;;4.18;100.00
73941;BME280;62294;48.554;10.202;2024-02-04T07:08:01;98379.50;;;4.17;100.00
73941;BME280;62294;48.554;10.202;2024-02-04T07:10:28;98381.28;;;4.17;100.00
73941;BME280;62294;48.554;10.202;2024-02-04T07:12:54;98380.31;;;4.18;100.00
73941;BME280;62294;48.554;10.202;2024-02-04T07:15:21;98389.75;;;4.20;100.00
73941;BME280;62294;48.554;10.202;2024-02-04T07:17:47;98388.34;;;4.16;100.00
73941;BME280;62294;48.554;10.202;2024-02-04T07:20:14;98373.41;;;4.17;100.00
73941;BME280;62294;48.554;10.202;2024-02-04T07:22:41;98380.31;;;4.18;100.00
73941;BME280;62294;48.554;10.202;2024-02-04T07:25:08;98391.56;;;4.20;100.00
73941;BME280;62294;48.554;10.202;2024-02-04T07:27:34;98381.16;;;4.18;100.00
73941;BME280;62294;48.554;10.202;2024-02-04T07:30:01;98380.22;;;4.19;100.00
73941;BME280;62294;48.554;10.202;2024-02-04T07:32:29;98390.59;;;4.21;100.00
73941;BME280;62294;48.554;10.202;2024-02-04T07:34:56;98379.22;;;4.20;100.00
73941;BME280;62294;48.554;10.202;2024-02-04T07:37:23;98385.47;;;4.19;100.00
73941;BME280;62294;48.554;10.202;2024-02-04T07:39:49;98393.38;;;4.19;100.00
73941;BME280;62294;48.554;10.202;2024-02-04T07:42:16;98390.59;;;4.21;100.00
73941;BME280;62294;48.554;10.202;2024-02-04T07:44:42;98401.97;;;4.21;100.00
73941;BME280;62294;48.554;10.202;2024-02-04T07:47:09;98400.28;;;4.20;100.00
73941;BME280;62294;48.554;10.202;2024-02-04T07:49:36;98390.84;;;4.18;100.00
73941;BME280;62294;48.554;10.202;2024-02-04T07:52:03;98396.94;;;4.18;100.00
73941;BME280;62294;48.554;10.202;2024-02-04T07:54:30;98399.72;;;4.17;100.00
73941;BME280;62294;48.554;10.202;2024-02-04T07:56:57;98406.97;;;4.24;100.00
73941;BME280;62294;48.554;10.202;2024-02-04T07:59:23;98412.97;;;4.15;100.00
73941;BME280;62294;48.554;10.202;2024-02-04T08:01:50;98423.28;;;4.18;100.00
73941;BME280;62294;48.554;10.202;2024-02-04T08:04:16;98423.50;;;4.15;100.00
73941;BME280;62294;48.554;10.202;2024-02-04T08:06:43;98432.13;;;4.17;100.00
73941;BME280;62294;48.554;10.202;2024-02-04T08:09:10;98435.00;;;4.14;100.00
73941;BME280;62294;48.554;10.202;2024-02-04T08:11:38;98440.13;;;4.16;100.00
73941;BME280;62294;48.554;10.202;2024-02-04T08:14:04;98443.97;;;4.12;100.00
73941;BME280;62294;48.554;10.202;2024-02-04T08:16:31;98452.59;;;4.14;100.00
73941;BME280;62294;48.554;10.202;2024-02-04T08:18:58;98462.25;;;4.13;100.00
73941;BME280;62294;48.554;10.202;2024-02-04T08:21:24;98458.91;;;4.11;100.00
73941;BME280;62294;48.554;10.202;2024-02-04T08:23:51;98472.78;;;4.13;100.00
73941;BME280;62294;48.554;10.202;2024-02-04T08:26:18;98481.16;;;4.18;100.00
73941;BME280;62294;48.554;10.202;2024-02-04T08:28:44;98491.69;;;4.29;100.00
73941;BME280;62294;48.554;10.202;2024-02-04T08:31:11;98498.66;;;4.30;100.00
73941;BME280;62294;48.554;10.202;2024-02-04T08:33:37;98506.66;;;4.40;100.00
73941;BME280;62294;48.554;10.202;2024-02-04T08:36:04;98507.00;;;4.47;100.00
73941;BME280;62294;48.554;10.202;2024-02-04T08:38:33;98510.34;;;4.49;100.00
73941;BME280;62294;48.554;10.202;2024-02-04T08:40:59;98519.19;;;4.59;100.00
73941;BME280;62294;48.554;10.202;2024-02-04T08:43:26;98509.09;;;4.75;100.00
73941;BME280;62294;48.554;10.202;2024-02-04T08:45:52;98516.25;;;4.84;100.00
73941;BME280;62294;48.554;10.202;2024-02-04T08:48:19;98513.56;;;4.74;100.00
73941;BME280;62294;48.554;10.202;2024-02-04T08:50:46;98512.81;;;4.83;100.00
73941;BME280;62294;48.554;10.202;2024-02-04T08:53:12;98513.16;;;4.90;100.00
73941;BME280;62294;48.554;10.202;2024-02-04T08:55:39;98515.66;;;4.91;100.00
73941;BME280;62294;48.554;10.202;2024-02-04T08:58:05;98518.78;;;4.85;100.00
73941;BME280;62294;48.554;10.202;2024-02-04T09:00:32;98506.44;;;4.97;100.00
73941;BME280;62294;48.554;10.202;2024-02-04T09:02:58;98488.19;;;5.05;100.00
73941;BME280;62294;48.554;10.202;2024-02-04T09:05:25;98473.97;;;4.96;100.00
73941;BME280;62294;48.554;10.202;2024-02-04T09:07:52;98467.59;;;4.99;100.00
73941;BME280;62294;48.554;10.202;2024-02-04T09:10:21;98463.94;;;5.11;100.00
73941;BME280;62294;48.554;10.202;2024-02-04T09:12:48;98439.41;;;5.11;100.00
73941;BME280;62294;48.554;10.202;2024-02-04T09:15:15;98410.53;;;5.09;100.00
73941;BME280;62294;48.554;10.202;2024-02-04T09:17:41;98401.41;;;5.13;100.00
73941;BME280;62294;48.554;10.202;2024-02-04T09:20:09;98385.47;;;5.35;100.00
73941;BME280;62294;48.554;10.202;2024-02-04T09:22:36;98383.13;;;5.42;100.00
73941;BME280;62294;48.554;10.202;2024-02-04T09:25:03;98383.97;;;5.42;100.00
73941;BME280;62294;48.554;10.202;2024-02-04T09:27:29;98380.81;;;5.48;100.00
73941;BME280;62294;48.554;10.202;2024-02-04T09:29:56;98368.00;;;5.44;100.00
73941;BME280;62294;48.554;10.202;2024-02-04T09:32:24;98348.53;;;5.35;100.00
73941;BME280;62294;48.554;10.202;2024-02-04T09:34:51;98328.06;;;5.48;100.00
73941;BME280;62294;48.554;10.202;2024-02-04T09:37:18;98325.88;;;5.53;100.00
73941;BME280;62294;48.554;10.202;2024-02-04T09:39:45;98327.84;;;5.61;100.00
73941;BME280;62294;48.554;10.202;2024-02-04T09:42:20;98312.53;;;5.55;100.00
73941;BME280;62294;48.554;10.202;2024-02-04T09:44:51;98297.00;;;5.52;100.00
73941;BME280;62294;48.554;10.202;2024-02-04T09:47:17;98290.91;;;5.61;100.00
73941;BME280;62294;48.554;10.202;2024-02-04T09:49:44;98278.13;;;5.66;100.00
73941;BME280;62294;48.554;10.202;2024-02-04T09:52:13;98258.69;;;5.57;100.00
73941;BME280;62294;48.554;10.202;2024-02-04T09:54:49;98248.63;;;5.82;100.00
73941;BME280;62294;48.554;10.202;2024-02-04T09:57:17;98231.56;;;5.86;100.00
73941;BME280;62294;48.554;10.202;2024-02-04T09:59:44;98219.94;;;5.98;100.00
73941;BME280;62294;48.554;10.202;2024-02-04T10:02:11;98207.41;;;6.19;100.00
73941;BME280;62294;48.554;10.202;2024-02-04T10:04:41;98195.88;;;6.20;100.00
73941;BME280;62294;48.554;10.202;2024-02-04T10:07:08;98179.91;;;6.21;100.00
73941;BME280;62294;48.554;10.202;2024-02-04T10:09:35;98156.72;;;6.06;100.00
73941;BME280;62294;48.554;10.202;2024-02-04T10:12:02;98131.41;;;6.03;100.00
73941;BME280;62294;48.554;10.202;2024-02-04T10:14:29;98119.59;;;6.07;100.00
73941;BME280;62294;48.554;10.202;2024-02-04T10:16:56;98101.81;;;6.19;100.00
73941;BME280;62294;48.554;10.202;2024-02-04T10:19:25;98085.16;;;6.09;100.00
73941;BME280;62294;48.554;10.202;2024-02-04T10:22:03;98075.56;;;6.17;100.00
73941;BME280;62294;48.554;10.202;2024-02-04T10:24:30;98073.75;;;6.18;100.00
73941;BME280;62294;48.554;10.202;2024-02-04T10:26:57;98035.09;;;6.26;100.00
73941;BME280;62294;48.554;10.202;2024-02-04T10:29:25;98040.09;;;6.29;100.00
73941;BME280;62294;48.554;10.202;2024-02-04T10:31:55;98025.28;;;6.46;100.00
73941;BME280;62294;48.554;10.202;2024-02-04T10:34:28;98012.16;;;6.64;100.00
73941;BME280;62294;48.554;10.202;2024-02-04T10:36:57;98014.13;;;6.79;100.00
73941;BME280;62294;48.554;10.202;2024-02-04T10:39:23;97997.41;;;6.88;100.00
73941;BME280;62294;48.554;10.202;2024-02-04T10:41:53;97978.00;;;6.97;100.00
73941;BME280;62294;48.554;10.202;2024-02-04T10:44:23;97939.38;;;6.87;100.00
73941;BME280;62294;48.554;10.202;2024-02-04T10:46:51;97922.53;;;7.05;100.00
73941;BME280;62294;48.554;10.202;2024-02-04T10:49:19;97897.59;;;7.26;100.00
73941;BME280;62294;48.554;10.202;2024-02-04T10:51:46;97871.78;;;7.20;100.00
73941;BME280;62294;48.554;10.202;2024-02-04T10:54:14;97849.97;;;7.26;100.00
73941;BME280;62294;48.554;10.202;2024-02-04T10:56:46;97820.84;;;7.18;100.00
73941;BME280;62294;48.554;10.202;2024-02-04T10:59:19;97808.00;;;7.23;100.00
73941;BME280;62294;48.554;10.202;2024-02-04T11:01:47;97782.31;;;7.41;100.00
73941;BME280;62294;48.554;10.202;2024-02-04T11:04:17;97774.69;;;7.38;100.00
73941;BME280;62294;48.554;10.202;2024-02-04T11:06:44;97773.00;;;7.29;100.00
73941;BME280;62294;48.554;10.202;2024-02-04T11:09:12;97752.47;;;7.23;100.00
73941;BME280;62294;48.554;10.202;2024-02-04T11:11:41;97734.72;;;7.49;100.00
73941;BME280;62294;48.554;10.202;2024-02-04T11:14:11;97717.16;;;7.32;100.00
73941;BME280;62294;48.554;10.202;2024-02-04T11:17:03;97706.34;;;7.59;100.00
73941;BME280;62294;48.554;10.202;2024-02-04T11:19:46;97676.47;;;7.33;100.00
73941;BME280;62294;48.554;10.202;2024-02-04T11:22:40;97678.06;;;7.59;100.00
73941;BME280;62294;48.554;10.202;2024-02-04T11:27:52;97653.72;;;7.48;100.00
73941;BME280;62294;48.554;10.202;2024-02-04T11:30:19;97635.50;;;7.37;100.00
73941;BME280;62294;48.554;10.202;2024-02-04T11:32:46;97631.72;;;7.05;100.00
73941;BME280;62294;48.554;10.202;2024-02-04T11:35:13;97613.22;;;6.97;100.00
73941;BME280;62294;48.554;10.202;2024-02-04T11:37:40;97621.41;;;6.86;100.00
73941;BME280;62294;48.554;10.202;2024-02-04T11:40:15;97598.09;;;7.24;100.00
73941;BME280;62294;48.554;10.202;2024-02-04T11:42:45;97580.72;;;7.13;100.00
73941;BME280;62294;48.554;10.202;2024-02-04T11:45:13;97563.13;;;6.88;100.00
73941;BME280;62294;48.554;10.202;2024-02-04T11:47:40;97562.69;;;7.00;100.00
73941;BME280;62294;48.554;10.202;2024-02-04T11:50:08;97558.38;;;6.99;100.00
73941;BME280;62294;48.554;10.202;2024-02-04T11:52:36;97551.03;;;6.85;100.00
73941;BME280;62294;48.554;10.202;2024-02-04T11:55:03;97550.34;;;7.33;100.00
73941;BME280;62294;48.554;10.202;2024-02-04T11:57:33;97532.50;;;7.27;100.00
73941;BME280;62294;48.554;10.202;2024-02-04T12:00:00;97522.75;;;7.28;100.00
73941;BME280;62294;48.554;10.202;2024-02-04T12:02:28;97523.06;;;7.33;100.00
73941;BME280;62294;48.554;10.202;2024-02-04T12:04:55;97525.53;;;7.18;100.00
73941;BME280;62294;48.554;10.202;2024-02-04T12:07:22;97511.00;;;7.22;100.00
73941;BME280;62294;48.554;10.202;2024-02-04T12:09:49;97496.31;;;7.28;100.00
73941;BME280;62294;48.554;10.202;2024-02-04T12:12:16;97472.50;;;7.52;100.00
73941;BME280;62294;48.554;10.202;2024-02-04T12:14:45;97452.81;;;7.86;100.00
73941;BME280;62294;48.554;10.202;2024-02-04T12:17:11;97440.56;;;7.85;100.00
73941;BME280;62294;48.554;10.202;2024-02-04T12:19:38;97428.09;;;8.10;100.00
73941;BME280;62294;48.554;10.202;2024-02-04T12:22:10;97427.50;;;7.84;100.00
73941;BME280;62294;48.554;10.202;2024-02-04T12:24:38;97426.34;;;7.78;100.00
73941;BME280;62294;48.554;10.202;2024-02-04T12:27:05;97414.28;;;7.84;100.00
73941;BME280;62294;48.554;10.202;2024-02-04T12:29:32;97408.16;;;7.83;100.00
73941;BME280;62294;48.554;10.202;2024-02-04T12:32:00;97388.50;;;7.70;100.00
73941;BME280;62294;48.554;10.202;2024-02-04T12:34:27;97367.50;;;7.60;100.00
73941;BME280;62294;48.554;10.202;2024-02-04T12:37:00;97360.03;;;7.72;100.00
73941;BME280;62294;48.554;10.202;2024-02-04T12:39:28;97358.72;;;7.68;100.00
73941;BME280;62294;48.554;10.202;2024-02-04T12:41:55;97349.41;;;7.88;100.00
73941;BME280;62294;48.554;10.202;2024-02-04T12:44:21;97346.44;;;7.83;100.00
73941;BME280;62294;48.554;10.202;2024-02-04T12:46:52;97341.06;;;8.07;100.00
73941;BME280;62294;48.554;10.202;2024-02-04T12:49:20;97338.38;;;8.15;100.00
73941;BME280;62294;48.554;10.202;2024-02-04T12:51:50;97326.16;;;8.14;100.00
73941;BME280;62294;48.554;10.202;2024-02-04T12:54:21;97324.44;;;8.29;100.00
73941;BME280;62294;48.554;10.202;2024-02-04T12:56:50;97306.72;;;8.30;100.00